createdAt,value
2023-04-09T00:03:02.524Z,12.38
2023-04-09T00:07:07.002Z,13.80
2023-04-09T00:11:10.037Z,12.35
2023-04-09T00:15:20.649Z,12.27
2023-04-09T00:19:31.226Z,14.93
2023-04-09T00:23:35.972Z,14.10
2023-04-09T00:27:39.164Z,14.73
2023-04-09T00:31:42.329Z,12.27
2023-04-09T00:35:45.507Z,12.27
2023-04-09T00:39:50.117Z,12.25
2023-04-09T00:43:53.203Z,13.85
2023-04-09T00:47:56.248Z,11.98
2023-04-09T00:51:59.386Z,11.82
2023-04-09T00:56:05.381Z,13.13
2023-04-09T01:00:09.811Z,13.05
2023-04-09T01:04:13.005Z,12.52
2023-04-09T01:08:26.176Z,13.05
2023-04-09T01:12:37.933Z,13.43
2023-04-09T01:16:45.701Z,11.48
2023-04-09T01:20:58.045Z,11.45
2023-04-09T01:25:13.527Z,10.07
2023-04-09T01:29:22.789Z,11.18
2023-04-09T01:33:27.410Z,12.98
2023-04-09T01:37:30.874Z,11.15
2023-04-09T01:41:35.526Z,13.70
2023-04-09T01:45:40.840Z,12.75
2023-04-09T01:49:44.492Z,11.93
2023-04-09T01:53:47.723Z,12.80
2023-04-09T01:57:50.821Z,12.35
2023-04-09T02:01:59.767Z,9.88
2023-04-09T02:06:09.133Z,12.20
2023-04-09T02:10:14.330Z,12.55
2023-04-09T02:14:17.706Z,10.82
2023-04-09T02:18:27.410Z,11.63
2023-04-09T02:22:30.597Z,11.55
2023-04-09T02:26:34.500Z,11.23
2023-04-09T02:30:37.892Z,10.35
2023-04-09T02:34:42.709Z,10.13
2023-04-09T02:38:46.240Z,11.10
2023-04-09T02:42:49.521Z,11.40
2023-04-09T02:46:53.262Z,10.00
2023-04-09T02:50:58.006Z,10.43
2023-04-09T02:55:01.120Z,8.93
2023-04-09T02:59:04.193Z,10.52
2023-04-09T03:03:07.424Z,9.85
2023-04-09T03:07:12.064Z,9.35
2023-04-09T03:11:15.859Z,10.70
2023-04-09T03:15:18.904Z,9.75
2023-04-09T03:19:21.990Z,8.40
2023-04-09T03:23:26.393Z,9.50
2023-04-09T03:27:29.446Z,11.13
2023-04-09T03:31:34.583Z,13.05
2023-04-09T03:35:37.689Z,12.23
2023-04-09T03:39:42.783Z,11.70
2023-04-09T03:43:46.271Z,11.00
2023-04-09T03:47:52.230Z,12.23
2023-04-09T03:51:59.225Z,12.40
2023-04-09T03:56:12.158Z,11.88
2023-04-09T04:00:15.734Z,15.43
2023-04-09T04:04:27.522Z,13.60
2023-04-09T04:08:33.441Z,15.57
2023-04-09T04:12:38.244Z,15.50
2023-04-09T04:16:48.592Z,15.65
2023-04-09T04:20:55.659Z,15.13
2023-04-09T04:24:58.981Z,11.32
2023-04-09T04:29:03.629Z,13.65
2023-04-09T04:33:33.043Z,12.52
2023-04-09T04:37:36.620Z,12.38
2023-04-09T04:41:39.905Z,12.63
2023-04-09T04:45:55.755Z,13.63
2023-04-09T04:50:02.354Z,13.45
2023-04-09T04:54:12.077Z,12.20
2023-04-09T04:58:18.020Z,13.95
2023-04-09T05:02:27.663Z,12.90
2023-04-09T05:06:51.080Z,13.30
2023-04-09T05:10:59.017Z,15.07
2023-04-09T05:15:10.120Z,13.30
2023-04-09T05:19:15.856Z,13.43
2023-04-09T05:23:20.266Z,13.82
2023-04-09T05:27:27.687Z,11.55
2023-04-09T05:31:36.468Z,15.18
2023-04-09T05:35:45.065Z,13.23
2023-04-09T05:39:48.231Z,12.90
2023-04-09T05:43:51.653Z,13.07
2023-04-09T05:47:56.705Z,13.80
2023-04-09T05:52:01.433Z,15.18
2023-04-09T05:56:15.407Z,14.65
2023-04-09T06:00:26.558Z,13.68
2023-04-09T06:04:29.696Z,14.32
2023-04-09T06:08:34.210Z,15.13
2023-04-09T06:12:37.465Z,15.75
2023-04-09T06:16:40.492Z,17.38
2023-04-09T06:20:43.670Z,14.95
2023-04-09T06:24:48.073Z,18.40
2023-04-09T06:28:51.152Z,17.63
2023-04-09T06:32:55.286Z,16.65
2023-04-09T06:36:58.994Z,16.95
2023-04-09T06:41:03.688Z,16.60
2023-04-09T06:45:08.870Z,15.05
2023-04-09T06:49:12.222Z,16.00
2023-04-09T06:53:16.239Z,19.67
2023-04-09T06:57:20.751Z,18.17
2023-04-09T07:01:23.924Z,17.17
2023-04-09T07:05:27.092Z,18.50
2023-04-09T07:09:30.166Z,20.50
2023-04-09T07:13:35.914Z,19.65
2023-04-09T07:17:38.958Z,18.55
2023-04-09T07:21:42.025Z,16.75
2023-04-09T07:25:45.332Z,18.63
2023-04-09T07:29:49.776Z,20.67
2023-04-09T07:33:53.020Z,20.00
2023-04-09T07:37:57.373Z,22.35
2023-04-09T07:42:04.386Z,21.70
2023-04-09T07:46:08.804Z,20.88
2023-04-09T07:50:12.834Z,21.05
2023-04-09T07:54:15.893Z,19.70
2023-04-09T07:58:19.105Z,19.25
2023-04-09T08:02:24.019Z,21.20
2023-04-09T08:06:27.616Z,20.70
2023-04-09T08:10:30.657Z,25.73
2023-04-09T08:14:33.702Z,22.25
2023-04-09T08:18:38.368Z,20.15
2023-04-09T08:22:42.859Z,19.58
2023-04-09T08:26:46.184Z,22.83
2023-04-09T08:30:49.568Z,19.33
2023-04-09T08:34:54.158Z,18.70
2023-04-09T08:38:57.332Z,20.75
2023-04-09T08:43:01.431Z,17.75
2023-04-09T08:47:10.140Z,16.73
2023-04-09T08:51:16.187Z,14.90
2023-04-09T08:55:19.267Z,15.82
2023-04-09T08:59:22.306Z,15.23
2023-04-09T09:03:25.429Z,14.30
2023-04-09T09:07:30.753Z,17.00
2023-04-09T09:11:34.429Z,17.17
2023-04-09T09:15:37.527Z,18.48
2023-04-09T09:19:40.586Z,17.58
2023-04-09T09:23:45.445Z,17.05
2023-04-09T09:27:48.448Z,17.80
2023-04-09T09:31:52.460Z,16.35
2023-04-09T09:35:57.777Z,16.67
2023-04-09T09:40:02.563Z,16.63
2023-04-09T09:44:07.260Z,17.85
2023-04-09T09:48:12.920Z,18.48
2023-04-09T09:52:17.174Z,16.60
2023-04-09T09:56:24.777Z,16.90
2023-04-09T10:00:29.424Z,18.38
2023-04-09T10:04:35.945Z,27.80
2023-04-09T10:08:42.180Z,22.40
2023-04-09T10:12:47.267Z,17.88
2023-04-09T10:16:51.564Z,21.08
2023-04-09T10:20:59.672Z,20.08
2023-04-09T10:25:04.070Z,23.38
2023-04-09T10:29:11.717Z,22.08
2023-04-09T10:33:16.667Z,21.80
2023-04-09T10:37:23.942Z,23.80
2023-04-09T10:41:30.853Z,17.92
2023-04-09T10:45:43.147Z,19.08
2023-04-09T10:49:46.237Z,17.88
2023-04-09T10:53:54.304Z,18.88
2023-04-09T10:57:57.384Z,18.83
2023-04-09T11:02:01.975Z,21.27
2023-04-09T11:06:09.367Z,20.48
2023-04-09T11:10:13.538Z,17.88
2023-04-09T11:14:20.785Z,16.52
2023-04-09T11:18:26.181Z,22.00
2023-04-09T11:22:30.358Z,20.33
2023-04-09T11:26:37.304Z,19.80
2023-04-09T11:30:41.404Z,18.00
2023-04-09T11:34:45.773Z,19.52
2023-04-09T11:38:50.155Z,16.88
2023-04-09T11:42:55.500Z,14.95
2023-04-09T11:47:00.023Z,15.75
2023-04-09T11:51:04.846Z,11.65
2023-04-09T11:55:09.132Z,7.63
2023-04-09T11:59:15.558Z,13.00
2023-04-09T12:03:18.756Z,20.73
2023-04-09T12:07:23.408Z,13.77
2023-04-09T12:11:31.831Z,13.05
2023-04-09T12:15:36.249Z,16.30
2023-04-09T12:19:39.240Z,14.85
2023-04-09T12:23:43.646Z,13.90
2023-04-09T12:27:46.943Z,15.98
2023-04-09T12:31:50.086Z,16.55
2023-04-09T12:35:53.148Z,14.95
2023-04-09T12:39:57.554Z,16.35
2023-04-09T12:44:01.205Z,16.77
2023-04-09T12:48:04.233Z,15.27
2023-04-09T12:52:07.278Z,13.40
2023-04-09T12:56:11.900Z,16.33
2023-04-09T13:00:16.043Z,13.07
2023-04-09T13:04:19.177Z,18.95
2023-04-09T13:08:22.608Z,15.35
2023-04-09T13:12:27.076Z,16.20
2023-04-09T13:16:30.223Z,16.88
2023-04-09T13:20:33.257Z,15.75
2023-04-09T13:24:36.756Z,13.32
2023-04-09T13:28:41.361Z,15.13
2023-04-09T13:32:44.702Z,12.70
2023-04-09T13:36:47.755Z,17.55
2023-04-09T13:40:50.821Z,15.63
2023-04-09T13:44:56.687Z,17.60
2023-04-09T13:48:59.861Z,18.08
2023-04-09T13:53:05.330Z,13.00
2023-04-09T13:57:08.509Z,14.82
2023-04-09T14:01:14.805Z,17.45
2023-04-09T14:05:17.948Z,16.25
2023-04-09T14:09:21.128Z,18.35
2023-04-09T14:13:24.203Z,16.45
2023-04-09T14:17:28.761Z,15.63
2023-04-09T14:21:32.053Z,16.08
2023-04-09T14:25:35.067Z,10.23
2023-04-09T14:29:38.125Z,13.20
2023-04-09T14:33:42.610Z,15.25
2023-04-09T14:37:46.907Z,12.18
2023-04-09T14:41:49.906Z,10.82
2023-04-09T14:45:54.373Z,11.40
2023-04-09T14:49:58.782Z,10.30
2023-04-09T14:54:02.124Z,11.82
2023-04-09T14:58:07.278Z,8.48
2023-04-09T15:02:11.214Z,9.77
2023-04-09T15:06:15.735Z,6.70
2023-04-09T15:10:18.918Z,9.02
2023-04-09T15:14:23.785Z,9.52
2023-04-09T15:18:26.815Z,8.45
2023-04-09T15:22:31.345Z,9.07
2023-04-09T15:26:35.642Z,8.38
2023-04-09T15:30:38.680Z,8.45
2023-04-09T15:34:41.711Z,7.45
2023-04-09T15:38:47.088Z,8.40
2023-04-09T15:42:50.165Z,6.10
2023-04-09T15:46:53.476Z,7.95
2023-04-09T15:50:56.503Z,7.45
2023-04-09T15:55:01.698Z,6.72
2023-04-09T15:59:05.406Z,8.95
2023-04-09T16:03:08.462Z,6.55
2023-04-09T16:07:11.901Z,6.72
2023-04-09T16:11:16.379Z,6.88
2023-04-09T16:15:20.037Z,9.07
2023-04-09T16:19:24.699Z,7.15
2023-04-09T16:23:30.668Z,8.05
2023-04-09T16:27:35.290Z,6.80
2023-04-09T16:31:39.223Z,7.78
2023-04-09T16:35:42.951Z,8.93
2023-04-09T16:39:46.158Z,13.52
2023-04-09T16:43:51.257Z,8.70
2023-04-09T16:47:54.848Z,7.18
2023-04-09T16:51:57.991Z,8.32
2023-04-09T16:56:01.795Z,7.63
2023-04-09T17:00:07.784Z,6.78
2023-04-09T17:04:10.999Z,5.88
2023-04-09T17:08:14.252Z,6.68
2023-04-09T17:12:17.766Z,6.95
2023-04-09T17:16:22.303Z,8.10
2023-04-09T17:20:26.173Z,9.63
2023-04-09T17:24:29.986Z,7.78
2023-04-09T17:28:33.396Z,7.88
2023-04-09T17:32:39.441Z,9.75
2023-04-09T17:36:42.541Z,8.50
2023-04-09T17:40:45.974Z,7.70
2023-04-09T17:44:48.983Z,6.95
2023-04-09T17:48:54.270Z,7.13
2023-04-09T17:52:57.725Z,8.02
2023-04-09T17:57:01.063Z,8.05
2023-04-09T18:01:08.416Z,8.45
2023-04-09T18:05:13.107Z,10.48
2023-04-09T18:09:16.204Z,9.73
2023-04-09T18:13:19.291Z,10.25
2023-04-09T18:17:22.886Z,10.50
2023-04-09T18:21:27.708Z,11.60
2023-04-09T18:25:31.007Z,9.68
2023-04-09T18:29:34.303Z,11.52
2023-04-09T18:33:37.381Z,12.75
2023-04-09T18:37:41.905Z,12.25
2023-04-09T18:41:45.039Z,10.43
2023-04-09T18:45:49.584Z,10.80
2023-04-09T18:49:52.838Z,10.13
2023-04-09T18:53:57.408Z,9.85
2023-04-09T18:58:01.023Z,17.65
2023-04-09T19:02:05.453Z,11.95
2023-04-09T19:06:17.720Z,8.35
2023-04-09T19:10:22.149Z,8.85
2023-04-09T19:14:25.763Z,8.73
2023-04-09T19:18:28.862Z,9.80
2023-04-09T19:22:31.921Z,8.82
2023-04-09T19:26:36.541Z,8.85
2023-04-09T19:30:39.572Z,10.80
2023-04-09T19:34:42.796Z,9.93
2023-04-09T19:38:45.856Z,10.75
2023-04-09T19:42:50.270Z,11.70
2023-04-09T19:46:55.815Z,10.77
2023-04-09T19:50:59.568Z,10.38
2023-04-09T19:55:04.408Z,11.32
2023-04-09T19:59:08.878Z,9.73
2023-04-09T20:03:12.146Z,10.70
2023-04-09T20:07:15.619Z,12.70
2023-04-09T20:11:19.305Z,10.52
2023-04-09T20:15:23.808Z,10.90
2023-04-09T20:19:26.957Z,11.60
2023-04-09T20:23:30.262Z,11.32
2023-04-09T20:27:33.579Z,11.52
2023-04-09T20:31:38.054Z,11.98
2023-04-09T20:35:41.402Z,12.65
2023-04-09T20:39:45.090Z,11.63
2023-04-09T20:43:48.158Z,11.82
2023-04-09T20:47:53.340Z,14.18
2023-04-09T20:51:56.937Z,12.13
2023-04-09T20:56:01.861Z,14.30
2023-04-09T21:00:05.441Z,12.75
2023-04-09T21:04:09.951Z,13.32
2023-04-09T21:08:15.407Z,11.50
2023-04-09T21:12:18.424Z,12.35
2023-04-09T21:16:21.488Z,14.15
2023-04-09T21:20:25.934Z,12.20
2023-04-09T21:24:28.961Z,13.02
2023-04-09T21:28:32.141Z,12.82
2023-04-09T21:32:35.320Z,11.35
2023-04-09T21:36:39.870Z,12.25
2023-04-09T21:40:42.933Z,11.98
2023-04-09T21:44:45.918Z,11.68
2023-04-09T21:48:48.925Z,12.13
2023-04-09T21:52:53.535Z,10.38
2023-04-09T21:56:57.000Z,11.07
2023-04-09T22:01:00.103Z,11.23
2023-04-09T22:05:03.429Z,11.43
2023-04-09T22:09:08.000Z,11.70
2023-04-09T22:13:11.041Z,11.00
2023-04-09T22:17:14.043Z,9.85
2023-04-09T22:21:17.333Z,10.02
2023-04-09T22:25:22.270Z,11.52
2023-04-09T22:29:25.849Z,12.60
2023-04-09T22:33:29.227Z,11.40
2023-04-09T22:37:32.231Z,11.02
2023-04-09T22:41:36.674Z,11.88
2023-04-09T22:45:39.740Z,11.63
2023-04-09T22:49:42.803Z,10.40
2023-04-09T22:53:47.888Z,15.32
2023-04-09T22:57:52.334Z,12.45
2023-04-09T23:01:55.488Z,11.63
2023-04-09T23:05:58.571Z,9.90
2023-04-09T23:10:01.580Z,13.55
2023-04-09T23:14:05.982Z,15.70
2023-04-09T23:18:09.025Z,13.30
2023-04-09T23:22:12.057Z,12.07
2023-04-09T23:26:15.115Z,12.43
2023-04-09T23:30:21.651Z,11.43
2023-04-09T23:34:24.757Z,13.80
2023-04-09T23:38:27.819Z,14.05
2023-04-09T23:42:33.024Z,13.00
2023-04-09T23:46:37.989Z,11.93
2023-04-09T23:50:41.873Z,13.05
2023-04-09T23:54:51.137Z,12.52
2023-04-09T23:58:54.150Z,12.95
